createdAt,value
2022-11-28T00:02:00.948Z,65.88
2022-11-28T00:04:28.961Z,52.75
2022-11-28T00:06:57.135Z,55.42
2022-11-28T00:09:25.556Z,50.25
2022-11-28T00:11:53.550Z,38.72
2022-11-28T00:14:21.545Z,48.40
2022-11-28T00:16:50.893Z,42.83
2022-11-28T00:19:18.918Z,45.65
2022-11-28T00:21:46.945Z,44.75
2022-11-28T00:24:14.985Z,42.80
2022-11-28T00:26:44.068Z,40.90
2022-11-28T00:29:12.650Z,42.95
2022-11-28T00:31:44.052Z,42.70
2022-11-28T00:34:15.368Z,43.30
2022-11-28T00:36:45.112Z,42.58
2022-11-28T00:39:13.479Z,42.40
2022-11-28T00:41:41.471Z,37.65
2022-11-28T00:44:09.817Z,40.13
2022-11-28T00:46:37.919Z,33.88
2022-11-28T00:49:05.885Z,39.85
2022-11-28T00:51:36.123Z,39.47
2022-11-28T00:54:12.498Z,34.05
2022-11-28T00:56:41.658Z,34.88
2022-11-28T00:59:09.904Z,32.13
2022-11-28T01:01:39.627Z,37.17
2022-11-28T01:04:09.999Z,35.90
2022-11-28T01:06:41.741Z,37.60
2022-11-28T01:09:12.466Z,33.60
2022-11-28T01:11:41.664Z,32.13
2022-11-28T01:14:10.839Z,31.48
2022-11-28T01:16:39.110Z,29.58
2022-11-28T01:19:08.291Z,37.72
2022-11-28T01:21:36.701Z,33.22
2022-11-28T01:24:06.983Z,33.85
2022-11-28T01:26:35.256Z,37.05
2022-11-28T01:29:03.239Z,31.52
2022-11-28T01:31:31.595Z,36.97
2022-11-28T01:34:06.141Z,34.28
2022-11-28T01:36:35.157Z,31.50
2022-11-28T01:39:03.129Z,36.15
2022-11-28T01:41:32.562Z,32.17
2022-11-28T01:44:03.441Z,35.53
2022-11-28T01:46:32.617Z,35.60
2022-11-28T01:49:04.997Z,34.22
2022-11-28T01:51:33.700Z,36.33
2022-11-28T01:54:02.413Z,34.13
2022-11-28T01:56:39.733Z,34.75
2022-11-28T01:59:11.224Z,29.50
2022-11-28T02:01:40.305Z,31.70
2022-11-28T02:04:08.443Z,32.75
2022-11-28T02:06:37.187Z,33.08
2022-11-28T02:09:07.838Z,36.45
2022-11-28T02:12:07.777Z,34.90
2022-11-28T02:15:01.048Z,28.98
2022-11-28T02:17:47.286Z,35.88
2022-11-28T02:20:53.041Z,30.95
2022-11-28T02:23:32.790Z,35.38
2022-11-28T02:26:32.810Z,34.80
2022-11-28T02:29:30.328Z,44.15
2022-11-28T02:32:14.983Z,42.03
2022-11-28T02:34:52.298Z,39.63
2022-11-28T02:37:31.999Z,45.03
2022-11-28T02:40:08.793Z,46.30
2022-11-28T02:42:48.218Z,52.67
2022-11-28T02:45:27.311Z,54.22
2022-11-28T02:48:02.911Z,53.15
2022-11-28T02:50:36.806Z,54.58
2022-11-28T02:53:08.004Z,59.75
2022-11-28T02:55:40.204Z,54.92
2022-11-28T02:58:08.610Z,46.38
2022-11-28T03:00:39.646Z,54.42
2022-11-28T03:03:36.220Z,54.83
2022-11-28T03:06:12.743Z,52.30
2022-11-28T03:08:55.947Z,52.75
2022-11-28T03:11:35.980Z,51.08
2022-11-28T03:14:13.582Z,55.13
2022-11-28T03:16:47.732Z,48.30
2022-11-28T03:19:21.756Z,51.08
2022-11-28T03:21:58.949Z,45.05
2022-11-28T03:24:34.349Z,43.88
2022-11-28T03:27:08.913Z,41.15
2022-11-28T03:29:42.176Z,44.55
2022-11-28T03:32:14.710Z,41.92
2022-11-28T03:34:48.779Z,41.15
2022-11-28T03:37:20.743Z,39.42
2022-11-28T03:39:52.792Z,41.20
2022-11-28T03:42:23.493Z,34.70
2022-11-28T03:44:57.169Z,45.80
2022-11-28T03:47:27.785Z,35.30
2022-11-28T03:49:58.872Z,34.45
2022-11-28T03:52:37.836Z,37.60
2022-11-28T03:55:12.091Z,34.97
2022-11-28T03:57:53.309Z,30.58
2022-11-28T04:00:21.508Z,30.25
2022-11-28T04:02:58.503Z,31.38
2022-11-28T04:05:33.868Z,31.85
2022-11-28T04:08:13.271Z,30.65
2022-11-28T04:10:44.839Z,32.25
2022-11-28T04:13:20.162Z,34.58
2022-11-28T04:15:53.839Z,39.80
2022-11-28T04:18:28.273Z,29.60
2022-11-28T04:21:04.882Z,32.50
2022-11-28T04:23:35.082Z,33.20
2022-11-28T04:26:08.581Z,35.40
2022-11-28T04:28:38.656Z,33.38
2022-11-28T04:31:08.375Z,33.00
2022-11-28T04:33:41.331Z,42.78
2022-11-28T04:36:12.560Z,31.30
2022-11-28T04:38:43.600Z,35.17
2022-11-28T04:41:15.998Z,37.92
2022-11-28T04:43:50.353Z,35.92
2022-11-28T04:46:22.369Z,35.50
2022-11-28T04:48:50.441Z,38.97
2022-11-28T04:51:23.752Z,42.65
2022-11-28T04:53:58.012Z,39.28
2022-11-28T04:56:32.647Z,42.17
2022-11-28T04:59:02.193Z,37.78
2022-11-28T05:01:32.632Z,36.05
2022-11-28T05:04:01.030Z,38.88
2022-11-28T05:06:33.026Z,39.90
2022-11-28T05:09:01.425Z,42.97
2022-11-28T05:11:30.037Z,39.20
2022-11-28T05:13:58.121Z,40.80
2022-11-28T05:16:26.254Z,39.55
2022-11-28T05:18:54.307Z,38.25
2022-11-28T05:21:22.338Z,37.45
2022-11-28T05:23:51.698Z,42.78
2022-11-28T05:26:21.915Z,42.55
2022-11-28T05:28:51.316Z,41.90
2022-11-28T05:31:20.387Z,43.63
2022-11-28T05:33:48.861Z,43.28
2022-11-28T05:36:18.520Z,35.03
2022-11-28T05:38:46.862Z,39.63
2022-11-28T05:41:21.458Z,33.63
2022-11-28T05:43:49.644Z,37.20
2022-11-28T05:46:18.242Z,40.33
2022-11-28T05:48:46.333Z,37.25
2022-11-28T05:51:15.043Z,39.67
2022-11-28T05:53:43.340Z,43.22
2022-11-28T05:56:12.571Z,36.38
2022-11-28T05:58:42.599Z,39.30
2022-11-28T06:01:12.716Z,36.58
2022-11-28T06:03:41.137Z,33.85
2022-11-28T06:06:13.989Z,36.05
2022-11-28T06:08:42.805Z,35.00
2022-11-28T06:11:10.971Z,37.70
2022-11-28T06:13:39.539Z,39.25
2022-11-28T06:16:11.139Z,38.25
2022-11-28T06:18:40.032Z,39.20
2022-11-28T06:21:14.510Z,40.33
2022-11-28T06:23:43.433Z,37.00
2022-11-28T06:26:13.925Z,35.97
2022-11-28T06:28:42.516Z,36.63
2022-11-28T06:31:13.414Z,39.22
2022-11-28T06:33:42.096Z,39.50
2022-11-28T06:36:11.621Z,37.55
2022-11-28T06:38:39.621Z,34.35
2022-11-28T06:41:10.101Z,41.72
2022-11-28T06:43:38.511Z,34.45
2022-11-28T06:46:06.981Z,40.03
2022-11-28T06:48:36.373Z,39.08
2022-11-28T06:51:05.207Z,36.13
2022-11-28T06:53:33.606Z,41.88
2022-11-28T06:56:12.303Z,44.00
2022-11-28T06:58:40.282Z,39.03
2022-11-28T07:01:09.782Z,38.08
2022-11-28T07:03:45.670Z,36.53
2022-11-28T07:06:15.687Z,34.70
2022-11-28T07:08:44.232Z,40.35
2022-11-28T07:11:13.826Z,36.78
2022-11-28T07:13:42.444Z,34.75
2022-11-28T07:16:16.182Z,32.65
2022-11-28T07:18:46.057Z,35.05
2022-11-28T07:21:15.137Z,35.78
2022-11-28T07:23:43.672Z,32.63
2022-11-28T07:26:13.958Z,33.55
2022-11-28T07:28:42.539Z,33.50
2022-11-28T07:31:12.926Z,41.88
2022-11-28T07:33:42.325Z,36.97
2022-11-28T07:36:15.730Z,36.17
2022-11-28T07:38:43.928Z,42.40
2022-11-28T07:41:13.972Z,38.50
2022-11-28T07:43:43.195Z,40.65
2022-11-28T07:46:13.312Z,42.55
2022-11-28T07:48:41.410Z,38.50
2022-11-28T07:51:11.015Z,40.38
2022-11-28T07:53:41.277Z,46.05
2022-11-28T07:56:13.621Z,34.22
2022-11-28T07:58:42.620Z,37.45
2022-11-28T08:01:11.670Z,38.42
2022-11-28T08:03:39.793Z,32.47
2022-11-28T08:06:08.758Z,35.42
2022-11-28T08:08:37.253Z,39.00
2022-11-28T08:11:08.542Z,43.35
2022-11-28T08:13:39.472Z,34.45
2022-11-28T08:16:09.903Z,37.80
2022-11-28T08:18:38.295Z,41.55
2022-11-28T08:21:09.988Z,32.00
2022-11-28T08:23:38.696Z,38.15
2022-11-28T08:26:11.635Z,37.70
2022-11-28T08:28:39.739Z,35.92
2022-11-28T08:31:11.950Z,34.40
2022-11-28T08:33:40.145Z,35.55
2022-11-28T08:36:09.425Z,34.67
2022-11-28T08:38:38.140Z,36.72
2022-11-28T08:41:09.146Z,35.53
2022-11-28T08:43:38.063Z,36.13
2022-11-28T08:46:07.129Z,36.75
2022-11-28T08:48:36.297Z,36.25
2022-11-28T08:51:04.563Z,29.38
2022-11-28T08:53:32.945Z,32.28
2022-11-28T08:56:01.317Z,30.52
2022-11-28T08:58:30.784Z,27.73
2022-11-28T09:01:00.825Z,32.33
2022-11-28T09:03:28.881Z,31.42
2022-11-28T09:06:02.377Z,27.00
2022-11-28T09:08:32.573Z,27.73
2022-11-28T09:11:00.761Z,28.95
2022-11-28T09:13:30.146Z,25.77
2022-11-28T09:15:58.144Z,30.52
2022-11-28T09:18:27.155Z,27.55
2022-11-28T09:20:59.555Z,24.15
2022-11-28T09:23:27.910Z,24.90
2022-11-28T09:25:56.364Z,23.83
2022-11-28T09:28:24.769Z,27.35
2022-11-28T09:31:02.615Z,30.17
2022-11-28T09:35:59.329Z,26.42
2022-11-28T09:38:27.543Z,23.58
2022-11-28T09:40:55.754Z,25.17
2022-11-28T09:43:30.872Z,26.50
2022-11-28T09:46:02.400Z,29.40
2022-11-28T09:48:36.263Z,28.05
2022-11-28T09:51:13.546Z,26.15
2022-11-28T09:53:48.684Z,32.22
2022-11-28T09:56:20.138Z,29.90
2022-11-28T09:58:52.676Z,27.48
2022-11-28T10:01:30.251Z,29.48
2022-11-28T10:04:04.123Z,27.88
2022-11-28T10:06:41.684Z,28.45
2022-11-28T10:09:23.786Z,27.55
2022-11-28T10:12:06.859Z,26.70
2022-11-28T10:14:55.553Z,21.98
2022-11-28T10:17:35.609Z,23.52
2022-11-28T10:20:07.136Z,27.88
2022-11-28T10:22:42.608Z,27.73
2022-11-28T10:25:17.876Z,29.95
2022-11-28T10:27:47.273Z,34.13
2022-11-28T10:30:21.817Z,35.17
2022-11-28T10:32:58.811Z,36.90
2022-11-28T10:35:35.418Z,40.10
2022-11-28T10:38:03.903Z,28.58
2022-11-28T10:40:41.040Z,34.00
2022-11-28T10:43:18.761Z,32.58
2022-11-28T10:45:55.595Z,30.88
2022-11-28T10:48:39.960Z,29.77
2022-11-28T10:51:22.569Z,34.10
2022-11-28T10:54:01.146Z,29.52
2022-11-28T10:56:38.658Z,27.20
2022-11-28T10:59:21.345Z,31.73
2022-11-28T11:01:51.061Z,31.70
2022-11-28T11:04:22.075Z,31.58
2022-11-28T11:07:15.049Z,29.45
2022-11-28T11:09:46.617Z,26.63
2022-11-28T11:12:21.821Z,30.77
2022-11-28T11:14:49.875Z,33.55
2022-11-28T11:17:36.176Z,32.47
2022-11-28T11:20:26.432Z,29.42
2022-11-28T11:22:56.559Z,25.33
2022-11-28T11:25:26.085Z,26.38
2022-11-28T11:27:57.389Z,30.60
2022-11-28T11:30:28.598Z,31.38
2022-11-28T11:32:58.590Z,31.08
2022-11-28T11:35:31.242Z,36.30
2022-11-28T11:38:19.270Z,27.67
2022-11-28T11:40:47.871Z,34.47
2022-11-28T11:43:37.179Z,32.30
2022-11-28T11:46:07.640Z,30.10
2022-11-28T11:48:39.675Z,36.50
2022-11-28T11:51:24.099Z,29.58
2022-11-28T11:54:05.581Z,33.72
2022-11-28T11:56:38.586Z,31.63
2022-11-28T11:59:16.071Z,35.73
2022-11-28T12:01:47.083Z,32.42
2022-11-28T12:04:43.595Z,37.92
2022-11-28T12:07:27.089Z,33.55
2022-11-28T12:10:03.037Z,30.58
2022-11-28T12:12:36.699Z,34.83
2022-11-28T12:15:05.257Z,35.28
2022-11-28T12:17:49.110Z,37.35
2022-11-28T12:20:33.920Z,37.95
2022-11-28T12:23:15.768Z,39.33
2022-11-28T12:25:54.160Z,37.95
2022-11-28T12:28:34.173Z,38.00
2022-11-28T12:31:16.429Z,33.08
2022-11-28T12:33:57.602Z,37.40
2022-11-28T12:36:30.596Z,39.03
2022-11-28T12:39:17.631Z,38.38
2022-11-28T12:42:09.410Z,40.15
2022-11-28T12:44:57.520Z,40.70
2022-11-28T12:47:36.102Z,44.85
2022-11-28T12:50:15.836Z,42.25
2022-11-28T12:52:49.703Z,44.17
2022-11-28T12:55:33.449Z,35.42
2022-11-28T12:58:10.885Z,37.75
2022-11-28T13:00:51.810Z,38.90
2022-11-28T13:03:35.502Z,41.85
2022-11-28T13:06:14.844Z,36.97
2022-11-28T13:09:08.725Z,36.97
2022-11-28T13:11:48.992Z,39.17
2022-11-28T13:14:29.529Z,39.42
2022-11-28T13:17:04.212Z,42.13
2022-11-28T13:19:42.072Z,36.38
2022-11-28T13:22:14.861Z,41.22
2022-11-28T13:24:50.807Z,41.28
2022-11-28T13:27:34.656Z,35.28
2022-11-28T13:30:14.411Z,37.65
2022-11-28T13:32:48.367Z,37.40
2022-11-28T13:35:18.734Z,38.80
2022-11-28T13:40:47.172Z,36.13
2022-11-28T13:43:23.542Z,40.08
2022-11-28T13:45:52.538Z,36.80
2022-11-28T13:49:20.209Z,38.10
2022-11-28T13:51:48.998Z,35.38
2022-11-28T13:54:45.653Z,39.85
2022-11-28T13:57:32.647Z,40.28
2022-11-28T14:00:10.517Z,42.60
2022-11-28T14:02:46.596Z,37.83
2022-11-28T14:05:34.170Z,49.20
2022-11-28T14:08:04.260Z,40.10
2022-11-28T14:10:50.732Z,40.20
2022-11-28T14:16:07.841Z,42.58
2022-11-28T14:18:58.805Z,41.20
2022-11-28T14:21:40.347Z,41.58
2022-11-28T14:24:17.859Z,36.05
2022-11-28T14:26:46.871Z,39.58
2022-11-28T14:29:24.660Z,43.53
2022-11-28T14:32:28.037Z,46.85
2022-11-28T14:34:47.675Z,41.50
2022-11-28T14:37:54.308Z,39.72
2022-11-28T14:41:03.910Z,40.13
2022-11-28T14:43:33.910Z,43.85
2022-11-28T14:46:26.481Z,43.83
2022-11-28T14:49:23.894Z,41.10
2022-11-28T14:55:19.641Z,43.28
2022-11-28T14:57:59.280Z,41.10
2022-11-28T15:00:29.956Z,46.25
2022-11-28T15:03:23.769Z,37.83
2022-11-28T15:05:55.342Z,38.53
2022-11-28T15:08:50.375Z,39.53
2022-11-28T15:11:39.130Z,38.50
2022-11-28T15:14:16.270Z,47.03
2022-11-28T15:16:51.020Z,43.60
2022-11-28T15:19:31.793Z,44.13
2022-11-28T15:22:03.258Z,43.42
2022-11-28T15:24:35.908Z,43.63
2022-11-28T15:27:25.511Z,46.25
2022-11-28T15:29:57.119Z,40.85
2022-11-28T15:32:26.050Z,40.35
2022-11-28T15:34:59.660Z,41.65
2022-11-28T15:37:32.757Z,45.08
2022-11-28T15:40:04.373Z,42.78
2022-11-28T15:42:34.284Z,45.38
2022-11-28T15:45:09.620Z,40.45
2022-11-28T15:47:41.079Z,45.15
2022-11-28T15:50:19.454Z,45.50
2022-11-28T15:52:58.623Z,41.75
2022-11-28T15:55:29.929Z,41.40
2022-11-28T15:58:13.554Z,39.58
2022-11-28T16:00:45.186Z,43.42
2022-11-28T16:03:16.465Z,44.40
2022-11-28T16:05:45.169Z,47.65
2022-11-28T16:08:27.108Z,43.85
2022-11-28T16:10:56.594Z,40.78
2022-11-28T16:13:25.060Z,45.22
2022-11-28T16:15:56.161Z,45.10
2022-11-28T16:18:26.198Z,44.78
2022-11-28T16:20:55.514Z,44.35
2022-11-28T16:23:31.388Z,51.17
2022-11-28T16:26:00.922Z,49.92
2022-11-28T16:28:33.893Z,51.10
2022-11-28T16:31:02.083Z,45.70
2022-11-28T16:33:41.684Z,46.85
2022-11-28T16:36:20.376Z,55.55
2022-11-28T16:38:52.065Z,50.35
2022-11-28T16:41:23.514Z,43.83
2022-11-28T16:43:56.474Z,46.63
2022-11-28T16:46:27.245Z,48.72
2022-11-28T16:48:57.804Z,49.58
2022-11-28T16:51:34.707Z,53.17
2022-11-28T16:54:31.859Z,49.90
2022-11-28T16:57:11.606Z,51.75
2022-11-28T16:59:39.829Z,51.25
2022-11-28T17:02:16.503Z,49.72
2022-11-28T17:04:45.278Z,48.53
2022-11-28T17:07:15.350Z,47.58
2022-11-28T17:09:46.699Z,46.50
2022-11-28T17:12:21.467Z,53.70
2022-11-28T17:14:49.541Z,52.03
2022-11-28T17:17:20.294Z,44.60
2022-11-28T17:19:48.711Z,44.38
2022-11-28T17:22:20.010Z,53.47
2022-11-28T17:24:51.683Z,50.80
2022-11-28T17:27:20.160Z,54.50
2022-11-28T17:29:48.293Z,51.00
2022-11-28T17:32:16.854Z,51.45
2022-11-28T17:34:46.604Z,45.78
2022-11-28T17:37:15.485Z,47.95
2022-11-28T17:40:03.693Z,43.35
2022-11-28T17:42:33.879Z,43.38
2022-11-28T17:45:02.078Z,48.20
2022-11-28T17:47:30.289Z,51.90
2022-11-28T17:49:58.910Z,50.03
2022-11-28T17:52:30.373Z,48.13
2022-11-28T17:55:07.023Z,48.90
2022-11-28T17:57:37.286Z,47.53
2022-11-28T18:00:07.723Z,49.05
2022-11-28T18:02:41.988Z,44.65
2022-11-28T18:05:11.731Z,43.35
2022-11-28T18:07:41.492Z,44.42
2022-11-28T18:10:12.835Z,52.38
2022-11-28T18:12:42.706Z,44.22
2022-11-28T18:15:11.541Z,45.85
2022-11-28T18:17:39.906Z,48.90
2022-11-28T18:20:11.385Z,46.00
2022-11-28T18:22:39.506Z,46.45
2022-11-28T18:25:09.479Z,44.65
2022-11-28T18:27:37.612Z,45.35
2022-11-28T18:30:08.972Z,40.85
2022-11-28T18:32:37.310Z,46.22
2022-11-28T18:35:06.381Z,42.63
2022-11-28T18:37:34.576Z,44.70
2022-11-28T18:40:09.119Z,48.75
2022-11-28T18:42:38.380Z,53.55
2022-11-28T18:45:09.366Z,47.63
2022-11-28T18:47:37.919Z,47.22
2022-11-28T18:50:08.149Z,48.85
2022-11-28T18:52:37.788Z,48.65
2022-11-28T18:55:06.410Z,45.00
2022-11-28T18:57:35.166Z,44.03
2022-11-28T19:00:05.501Z,49.03
2022-11-28T19:02:36.029Z,40.55
2022-11-28T19:05:04.956Z,46.10
2022-11-28T19:07:33.310Z,41.67
2022-11-28T19:10:01.391Z,46.95
2022-11-28T19:12:29.565Z,43.25
2022-11-28T19:15:02.099Z,43.58
2022-11-28T19:17:30.867Z,44.95
2022-11-28T19:20:00.472Z,47.42
2022-11-28T19:22:29.734Z,50.17
2022-11-28T19:24:59.744Z,48.78
2022-11-28T19:27:27.872Z,47.67
2022-11-28T19:29:56.080Z,47.55
2022-11-28T19:32:25.302Z,53.80
2022-11-28T19:34:58.075Z,53.03
2022-11-28T19:37:27.564Z,47.40
2022-11-28T19:40:01.053Z,47.22
2022-11-28T19:42:30.545Z,42.70
2022-11-28T19:44:59.174Z,46.83
2022-11-28T19:47:27.267Z,53.45
2022-11-28T19:49:55.297Z,46.40
2022-11-28T19:52:23.625Z,44.58
2022-11-28T19:54:53.140Z,49.75
2022-11-28T19:57:22.037Z,50.55
2022-11-28T19:59:50.216Z,51.65
2022-11-28T20:02:21.669Z,48.90
2022-11-28T20:04:51.284Z,46.90
2022-11-28T20:07:20.471Z,49.08
2022-11-28T20:09:49.580Z,48.30
2022-11-28T20:12:20.107Z,50.83
2022-11-28T20:14:48.454Z,46.50
2022-11-28T20:17:17.311Z,52.35
2022-11-28T20:19:48.566Z,49.10
2022-11-28T20:22:17.886Z,52.20
2022-11-28T20:24:47.158Z,54.55
2022-11-28T20:27:15.445Z,52.47
2022-11-28T20:29:45.634Z,53.28
2022-11-28T20:32:14.274Z,51.28
2022-11-28T20:34:45.376Z,51.30
2022-11-28T20:37:15.564Z,52.65
2022-11-28T20:39:44.347Z,49.05
2022-11-28T20:42:12.690Z,53.90
2022-11-28T20:44:41.156Z,47.00
2022-11-28T20:47:11.741Z,54.40
2022-11-28T20:49:39.784Z,46.65
2022-11-28T20:52:08.191Z,54.17
2022-11-28T20:54:37.372Z,59.85
2022-11-28T20:57:20.978Z,59.45
2022-11-28T20:59:52.522Z,55.55
2022-11-28T21:02:29.888Z,49.13
2022-11-28T21:04:59.200Z,50.88
2022-11-28T21:07:27.469Z,59.35
2022-11-28T21:09:59.899Z,50.78
2022-11-28T21:12:29.077Z,56.92
2022-11-28T21:14:57.512Z,55.33
2022-11-28T21:17:25.575Z,58.97
2022-11-28T21:19:56.014Z,56.55
2022-11-28T21:22:24.054Z,60.17
2022-11-28T21:24:52.091Z,61.63
2022-11-28T21:27:22.348Z,54.30
2022-11-28T21:29:52.262Z,53.08
2022-11-28T21:32:20.664Z,58.20
2022-11-28T21:34:48.773Z,54.08
2022-11-28T21:37:18.705Z,55.60
2022-11-28T21:39:47.020Z,59.35
2022-11-28T21:42:20.289Z,54.67
2022-11-28T21:44:50.889Z,58.72
2022-11-28T21:47:19.071Z,65.70
2022-11-28T21:49:47.374Z,55.85
2022-11-28T21:52:23.563Z,61.15
2022-11-28T21:54:53.886Z,53.67
2022-11-28T21:57:23.486Z,64.75
2022-11-28T21:59:51.585Z,59.17
2022-11-28T22:02:20.318Z,52.10
2022-11-28T22:04:48.661Z,50.47
2022-11-28T22:07:18.439Z,54.10
2022-11-28T22:09:46.547Z,52.67
2022-11-28T22:12:14.593Z,48.92
2022-11-28T22:14:42.715Z,47.88
2022-11-28T22:17:10.887Z,51.85
2022-11-28T22:19:40.021Z,53.15
2022-11-28T22:22:08.116Z,49.05
2022-11-28T22:24:37.738Z,51.50
2022-11-28T22:27:06.698Z,51.17
2022-11-28T22:29:34.847Z,53.55
2022-11-28T22:32:03.863Z,51.03
2022-11-28T22:34:35.771Z,45.97
2022-11-28T22:37:07.794Z,46.67
2022-11-28T22:39:38.884Z,42.17
2022-11-28T22:42:07.539Z,49.00
2022-11-28T22:44:35.762Z,46.50
2022-11-28T22:47:03.879Z,45.42
2022-11-28T22:49:32.039Z,47.00
2022-11-28T22:52:00.280Z,48.20
2022-11-28T22:54:28.624Z,43.70
2022-11-28T22:56:58.333Z,44.47
2022-11-28T22:59:27.188Z,47.42
2022-11-28T23:01:55.423Z,44.47
2022-11-28T23:04:23.622Z,43.10
2022-11-28T23:06:52.176Z,45.15
2022-11-28T23:09:20.987Z,47.78
2022-11-28T23:11:49.824Z,46.55
2022-11-28T23:14:20.054Z,45.20
2022-11-28T23:16:51.340Z,52.15
2022-11-28T23:19:20.272Z,48.47
2022-11-28T23:21:50.503Z,46.28
2022-11-28T23:24:22.613Z,47.30
2022-11-28T23:26:52.594Z,44.28
2022-11-28T23:29:22.184Z,43.08
2022-11-28T23:31:52.636Z,48.47
2022-11-28T23:34:20.846Z,43.58
2022-11-28T23:36:49.519Z,45.80
2022-11-28T23:39:20.276Z,49.08
2022-11-28T23:41:49.096Z,40.60
2022-11-28T23:44:18.855Z,41.95
2022-11-28T23:46:48.864Z,42.67
2022-11-28T23:49:16.915Z,40.92
2022-11-28T23:51:44.961Z,45.60
2022-11-28T23:54:13.317Z,44.45
2022-11-28T23:56:42.711Z,45.65
2022-11-28T23:59:12.269Z,43.85
